sensor_id;sensor_type;location;lat;lon;timestamp;P1;P2;P0
77516;PMS7003;68414;53.946;27.634;2023-04-27T00:00:45;2.383333;2.383333;2.000000
77516;PMS7003;68414;53.946;27.634;2023-04-27T00:01:45;2.816667;2.816667;2.283333
77516;PMS7003;68414;53.946;27.634;2023-04-27T00:02:45;3.216667;2.600000;1.800000
77516;PMS7003;68414;53.946;27.634;2023-04-27T00:03:45;2.316667;2.250000;1.650000
77516;PMS7003;68414;53.946;27.634;2023-04-27T00:04:45;2.783333;2.733333;1.766667
77516;PMS7003;68414;53.946;27.634;2023-04-27T00:05:45;2.833333;2.650000;2.083333
77516;PMS7003;68414;53.946;27.634;2023-04-27T00:06:45;3.950000;3.333333;2.400000
77516;PMS7003;68414;53.946;27.634;2023-04-27T00:07:45;3.500000;3.250000;2.066667
77516;PMS7003;68414;53.946;27.634;2023-04-27T00:08:45;2.983333;2.633333;1.966667
77516;PMS7003;68414;53.946;27.634;2023-04-27T00:09:46;2.933333;2.933333;2.200000
77516;PMS7003;68414;53.946;27.634;2023-04-27T00:10:45;2.450000;2.450000;2.083333
77516;PMS7003;68414;53.946;27.634;2023-04-27T00:11:45;2.333333;2.333333;1.916667
77516;PMS7003;68414;53.946;27.634;2023-04-27T00:12:45;3.116667;3.116667;1.900000
77516;PMS7003;68414;53.946;27.634;2023-04-27T00:13:46;2.700000;2.383333;1.733333
77516;PMS7003;68414;53.946;27.634;2023-04-27T00:14:45;2.216667;2.150000;1.850000
77516;PMS7003;68414;53.946;27.634;2023-04-27T00:15:45;2.916667;2.650000;2.016667
77516;PMS7003;68414;53.946;27.634;2023-04-27T00:16:46;2.316667;2.066667;1.516667
77516;PMS7003;68414;53.946;27.634;2023-04-27T00:17:45;2.966667;2.650000;2.150000
77516;PMS7003;68414;53.946;27.634;2023-04-27T00:18:45;2.333333;2.083333;1.883333
77516;PMS7003;68414;53.946;27.634;2023-04-27T00:19:45;2.950000;2.950000;2.533333
77516;PMS7003;68414;53.946;27.634;2023-04-27T00:20:45;3.366667;3.000000;2.050000
77516;PMS7003;68414;53.946;27.634;2023-04-27T00:21:45;2.950000;2.950000;2.716667
77516;PMS7003;68414;53.946;27.634;2023-04-27T00:22:45;2.516667;2.516667;1.866667
77516;PMS7003;68414;53.946;27.634;2023-04-27T00:23:45;2.683333;2.450000;1.983333
77516;PMS7003;68414;53.946;27.634;2023-04-27T00:24:45;3.600000;3.383333;2.566667
77516;PMS7003;68414;53.946;27.634;2023-04-27T00:25:45;4.083333;4.083333;2.550000
77516;PMS7003;68414;53.946;27.634;2023-04-27T00:26:45;3.433333;3.433333;2.116667
77516;PMS7003;68414;53.946;27.634;2023-04-27T00:27:45;3.416667;2.850000;2.050000
77516;PMS7003;68414;53.946;27.634;2023-04-27T00:28:45;3.683333;3.233333;2.550000
77516;PMS7003;68414;53.946;27.634;2023-04-27T00:29:45;3.083333;2.800000;1.933333
77516;PMS7003;68414;53.946;27.634;2023-04-27T00:30:46;4.000000;3.916667;3.050000
77516;PMS7003;68414;53.946;27.634;2023-04-27T00:31:45;3.416667;3.400000;3.000000
77516;PMS7003;68414;53.946;27.634;2023-04-27T00:32:46;4.300000;3.766667;3.083333
77516;PMS7003;68414;53.946;27.634;2023-04-27T00:33:45;5.566667;4.383333;2.966667
77516;PMS7003;68414;53.946;27.634;2023-04-27T00:34:45;3.916667;3.483333;2.450000
77516;PMS7003;68414;53.946;27.634;2023-04-27T00:35:45;4.433333;4.433333;2.966667
77516;PMS7003;68414;53.946;27.634;2023-04-27T00:36:45;4.883333;3.933333;2.883333
77516;PMS7003;68414;53.946;27.634;2023-04-27T00:37:45;4.250000;3.800000;2.966667
77516;PMS7003;68414;53.946;27.634;2023-04-27T00:38:45;5.616667;4.433333;3.100000
77516;PMS7003;68414;53.946;27.634;2023-04-27T00:39:45;4.816667;4.816667;2.900000
77516;PMS7003;68414;53.946;27.634;2023-04-27T00:40:45;4.833333;4.400000;3.533333
77516;PMS7003;68414;53.946;27.634;2023-04-27T00:41:45;4.616667;4.066667;2.766667
77516;PMS7003;68414;53.946;27.634;2023-04-27T00:42:45;6.450000;5.533333;3.783333
77516;PMS7003;68414;53.946;27.634;2023-04-27T00:43:46;6.566667;6.233333;3.783333
77516;PMS7003;68414;53.946;27.634;2023-04-27T00:44:46;5.266667;5.266667;4.066667
77516;PMS7003;68414;53.946;27.634;2023-04-27T00:45:45;5.866667;5.266667;3.983333
77516;PMS7003;68414;53.946;27.634;2023-04-27T00:46:45;6.450000;5.983333;3.883333
77516;PMS7003;68414;53.946;27.634;2023-04-27T00:47:45;5.516667;5.050000;3.300000
77516;PMS7003;68414;53.946;27.634;2023-04-27T00:48:45;5.300000;5.300000;3.650000
77516;PMS7003;68414;53.946;27.634;2023-04-27T00:49:45;6.033333;5.333333;3.750000
77516;PMS7003;68414;53.946;27.634;2023-04-27T00:50:45;7.000000;5.883333;4.333333
77516;PMS7003;68414;53.946;27.634;2023-04-27T00:51:46;9.283334;7.400000;4.766667
77516;PMS7003;68414;53.946;27.634;2023-04-27T00:52:46;6.033333;5.866667;3.866667
77516;PMS7003;68414;53.946;27.634;2023-04-27T00:53:45;6.916667;6.216667;4.400000
77516;PMS7003;68414;53.946;27.634;2023-04-27T00:54:48;6.666667;6.266667;3.900000
77516;PMS7003;68414;53.946;27.634;2023-04-27T00:55:46;7.966667;6.900000;5.000000
77516;PMS7003;68414;53.946;27.634;2023-04-27T00:57:45;7.150000;6.733333;4.266667
77516;PMS7003;68414;53.946;27.634;2023-04-27T00:58:46;6.433333;6.100000;4.100000
77516;PMS7003;68414;53.946;27.634;2023-04-27T00:59:46;6.750000;6.600000;4.533333
77516;PMS7003;68414;53.946;27.634;2023-04-27T01:00:45;6.550000;6.133333;4.883333
77516;PMS7003;68414;53.946;27.634;2023-04-27T01:01:45;6.233333;5.950000;4.483333
77516;PMS7003;68414;53.946;27.634;2023-04-27T01:02:46;7.750000;7.166667;5.116667
77516;PMS7003;68414;53.946;27.634;2023-04-27T01:03:46;6.500000;6.316667;4.483333
77516;PMS7003;68414;53.946;27.634;2023-04-27T01:04:45;8.016666;7.233333;5.033333
77516;PMS7003;68414;53.946;27.634;2023-04-27T01:05:45;9.050000;8.000000;5.016667
77516;PMS7003;68414;53.946;27.634;2023-04-27T01:06:46;6.366667;6.083333;4.983333
77516;PMS7003;68414;53.946;27.634;2023-04-27T01:07:45;7.133333;6.716667;4.550000
77516;PMS7003;68414;53.946;27.634;2023-04-27T01:08:45;7.500000;7.066667;4.666667
77516;PMS7003;68414;53.946;27.634;2023-04-27T01:09:45;7.866667;7.100000;5.083333
77516;PMS7003;68414;53.946;27.634;2023-04-27T01:10:45;9.600000;8.716666;6.250000
77516;PMS7003;68414;53.946;27.634;2023-04-27T01:11:46;8.650000;7.350000;5.700000
77516;PMS7003;68414;53.946;27.634;2023-04-27T01:12:45;7.000000;6.800000;4.900000
77516;PMS7003;68414;53.946;27.634;2023-04-27T01:13:46;9.966666;8.350000;5.600000
77516;PMS7003;68414;53.946;27.634;2023-04-27T01:14:45;7.366667;7.366667;5.366667
77516;PMS7003;68414;53.946;27.634;2023-04-27T01:15:45;7.450000;7.133333;4.583333
77516;PMS7003;68414;53.946;27.634;2023-04-27T01:16:45;7.950000;7.333333;5.650000
77516;PMS7003;68414;53.946;27.634;2023-04-27T01:17:46;8.800000;7.716667;5.783333
77516;PMS7003;68414;53.946;27.634;2023-04-27T01:18:46;8.500000;7.633333;5.300000
77516;PMS7003;68414;53.946;27.634;2023-04-27T01:19:45;8.983334;8.250000;5.883333
77516;PMS7003;68414;53.946;27.634;2023-04-27T01:20:45;9.366667;8.433333;5.333333
77516;PMS7003;68414;53.946;27.634;2023-04-27T01:21:45;7.666667;7.166667;4.783333
77516;PMS7003;68414;53.946;27.634;2023-04-27T01:22:45;7.850000;7.183333;4.933333
77516;PMS7003;68414;53.946;27.634;2023-04-27T01:23:45;7.433333;6.850000;4.966667
77516;PMS7003;68414;53.946;27.634;2023-04-27T01:24:46;9.083333;7.900000;5.466667
77516;PMS7003;68414;53.946;27.634;2023-04-27T01:25:46;8.783334;7.816667;5.633333
77516;PMS7003;68414;53.946;27.634;2023-04-27T01:26:45;9.016666;7.583333;4.966667
77516;PMS7003;68414;53.946;27.634;2023-04-27T01:27:45;8.900000;8.300000;5.550000
77516;PMS7003;68414;53.946;27.634;2023-04-27T01:28:45;7.733333;7.483333;5.383333
77516;PMS7003;68414;53.946;27.634;2023-04-27T01:29:46;7.450000;6.950000;5.100000
77516;PMS7003;68414;53.946;27.634;2023-04-27T01:30:45;7.700000;7.016667;5.000000
77516;PMS7003;68414;53.946;27.634;2023-04-27T01:31:45;7.666667;7.633333;5.850000
77516;PMS7003;68414;53.946;27.634;2023-04-27T01:32:45;8.783334;7.866667;5.266667
77516;PMS7003;68414;53.946;27.634;2023-04-27T01:33:45;6.566667;6.300000;4.500000
77516;PMS7003;68414;53.946;27.634;2023-04-27T01:34:45;6.950000;6.816667;4.883333
77516;PMS7003;68414;53.946;27.634;2023-04-27T01:35:45;6.966667;6.966667;5.116667
77516;PMS7003;68414;53.946;27.634;2023-04-27T01:36:45;8.166667;7.466667;5.450000
77516;PMS7003;68414;53.946;27.634;2023-04-27T01:37:45;8.500000;8.333333;6.033333
77516;PMS7003;68414;53.946;27.634;2023-04-27T01:38:45;6.766667;6.550000;5.016667
77516;PMS7003;68414;53.946;27.634;2023-04-27T01:39:45;7.583333;6.916667;4.633333
77516;PMS7003;68414;53.946;27.634;2023-04-27T01:40:45;7.883333;7.183333;5.216667
77516;PMS7003;68414;53.946;27.634;2023-04-27T01:41:45;6.333333;6.333333;4.783333
77516;PMS7003;68414;53.946;27.634;2023-04-27T01:42:45;8.950000;8.466666;5.733333
77516;PMS7003;68414;53.946;27.634;2023-04-27T01:43:45;8.350000;7.516667;5.166667
77516;PMS7003;68414;53.946;27.634;2023-04-27T01:44:45;6.900000;6.350000;5.016667
77516;PMS7003;68414;53.946;27.634;2023-04-27T01:46:45;7.933333;7.516667;5.383333
77516;PMS7003;68414;53.946;27.634;2023-04-27T01:47:45;7.683333;7.166667;5.066667
77516;PMS7003;68414;53.946;27.634;2023-04-27T01:48:45;6.616667;6.383333;4.850000
77516;PMS7003;68414;53.946;27.634;2023-04-27T01:49:45;8.800000;7.566667;5.616667
77516;PMS7003;68414;53.946;27.634;2023-04-27T01:50:45;7.833333;7.516667;5.250000
77516;PMS7003;68414;53.946;27.634;2023-04-27T01:51:45;9.333333;8.066667;5.900000
77516;PMS7003;68414;53.946;27.634;2023-04-27T01:52:45;7.766667;7.266667;5.200000
77516;PMS7003;68414;53.946;27.634;2023-04-27T01:53:45;7.583333;7.150000;5.100000
77516;PMS7003;68414;53.946;27.634;2023-04-27T01:54:45;7.383333;6.550000;4.566667
77516;PMS7003;68414;53.946;27.634;2023-04-27T01:55:45;7.383333;6.733333;5.150000
77516;PMS7003;68414;53.946;27.634;2023-04-27T01:56:45;8.800000;7.950000;5.050000
77516;PMS7003;68414;53.946;27.634;2023-04-27T01:57:45;8.050000;7.033333;5.116667
77516;PMS7003;68414;53.946;27.634;2023-04-27T01:58:46;8.566667;7.416667;5.816667
77516;PMS7003;68414;53.946;27.634;2023-04-27T01:59:45;7.133333;6.833333;5.633333
77516;PMS7003;68414;53.946;27.634;2023-04-27T02:00:45;8.116667;7.983333;5.900000
77516;PMS7003;68414;53.946;27.634;2023-04-27T02:01:45;9.950000;9.100000;6.250000
77516;PMS7003;68414;53.946;27.634;2023-04-27T02:02:45;8.766666;8.450000;5.783333
77516;PMS7003;68414;53.946;27.634;2023-04-27T02:03:45;8.966666;8.966666;6.033333
77516;PMS7003;68414;53.946;27.634;2023-04-27T02:04:45;8.316667;8.316667;5.400000
77516;PMS7003;68414;53.946;27.634;2023-04-27T02:05:45;8.466666;8.466666;6.033333
77516;PMS7003;68414;53.946;27.634;2023-04-27T02:06:45;9.366667;8.833333;6.283333
77516;PMS7003;68414;53.946;27.634;2023-04-27T02:07:45;9.033334;8.666667;5.916667
77516;PMS7003;68414;53.946;27.634;2023-04-27T02:08:45;9.383333;8.416667;6.233333
77516;PMS7003;68414;53.946;27.634;2023-04-27T02:09:45;9.516666;8.933333;6.500000
77516;PMS7003;68414;53.946;27.634;2023-04-27T02:10:45;9.633333;9.016666;6.433333
77516;PMS7003;68414;53.946;27.634;2023-04-27T02:11:45;9.466666;8.916667;6.166667
77516;PMS7003;68414;53.946;27.634;2023-04-27T02:12:45;9.083333;8.850000;5.900000
77516;PMS7003;68414;53.946;27.634;2023-04-27T02:13:45;8.666667;8.283334;5.666667
77516;PMS7003;68414;53.946;27.634;2023-04-27T02:14:45;8.000000;7.850000;5.750000
77516;PMS7003;68414;53.946;27.634;2023-04-27T02:15:45;9.450000;8.500000;6.533333
77516;PMS7003;68414;53.946;27.634;2023-04-27T02:16:45;9.066667;8.716666;6.516667
77516;PMS7003;68414;53.946;27.634;2023-04-27T02:17:45;9.750000;9.216666;5.750000
77516;PMS7003;68414;53.946;27.634;2023-04-27T02:18:45;8.500000;7.916667;6.100000
77516;PMS7003;68414;53.946;27.634;2023-04-27T02:19:45;9.600000;8.916667;5.983333
77516;PMS7003;68414;53.946;27.634;2023-04-27T02:20:45;9.333333;8.400000;6.416667
77516;PMS7003;68414;53.946;27.634;2023-04-27T02:21:45;9.900000;8.633333;5.983333
77516;PMS7003;68414;53.946;27.634;2023-04-27T02:22:45;12.600000;10.900000;7.766667
77516;PMS7003;68414;53.946;27.634;2023-04-27T02:23:45;9.283334;8.750000;7.100000
77516;PMS7003;68414;53.946;27.634;2023-04-27T02:24:45;11.433333;11.133333;7.433333
77516;PMS7003;68414;53.946;27.634;2023-04-27T02:25:45;9.566667;9.566667;7.100000
77516;PMS7003;68414;53.946;27.634;2023-04-27T02:26:45;10.383333;9.916667;7.400000
77516;PMS7003;68414;53.946;27.634;2023-04-27T02:27:45;9.533334;9.000000;6.450000
77516;PMS7003;68414;53.946;27.634;2023-04-27T02:28:46;10.800000;8.783334;6.016667
77516;PMS7003;68414;53.946;27.634;2023-04-27T02:29:45;10.350000;8.966666;6.800000
77516;PMS7003;68414;53.946;27.634;2023-04-27T02:30:45;9.883333;8.900000;6.300000
77516;PMS7003;68414;53.946;27.634;2023-04-27T02:31:45;10.333333;9.833333;7.566667
77516;PMS7003;68414;53.946;27.634;2023-04-27T02:32:45;10.216666;8.183333;6.066667
77516;PMS7003;68414;53.946;27.634;2023-04-27T02:33:45;7.916667;7.833333;5.766667
77516;PMS7003;68414;53.946;27.634;2023-04-27T02:34:45;10.166667;9.766666;6.683333
77516;PMS7003;68414;53.946;27.634;2023-04-27T02:35:45;9.966666;9.033334;6.450000
77516;PMS7003;68414;53.946;27.634;2023-04-27T02:36:45;11.400000;9.416667;6.500000
77516;PMS7003;68414;53.946;27.634;2023-04-27T02:37:45;11.333333;10.000000;7.166667
77516;PMS7003;68414;53.946;27.634;2023-04-27T02:38:45;8.483334;8.416667;5.850000
77516;PMS7003;68414;53.946;27.634;2023-04-27T02:39:45;9.816667;9.200000;6.283333
77516;PMS7003;68414;53.946;27.634;2023-04-27T02:40:45;11.300000;10.016666;6.266667
77516;PMS7003;68414;53.946;27.634;2023-04-27T02:41:45;9.966666;8.266666;6.166667
77516;PMS7003;68414;53.946;27.634;2023-04-27T02:42:47;11.850000;9.933333;6.133333
77516;PMS7003;68414;53.946;27.634;2023-04-27T02:43:45;8.783334;8.133333;6.033333
77516;PMS7003;68414;53.946;27.634;2023-04-27T02:44:45;9.716666;8.933333;6.750000
77516;PMS7003;68414;53.946;27.634;2023-04-27T02:45:45;10.933333;9.883333;6.466667
77516;PMS7003;68414;53.946;27.634;2023-04-27T02:46:45;8.666667;8.600000;6.300000
77516;PMS7003;68414;53.946;27.634;2023-04-27T02:47:45;9.566667;7.966667;6.000000
77516;PMS7003;68414;53.946;27.634;2023-04-27T02:48:45;9.833333;8.200000;6.000000
77516;PMS7003;68414;53.946;27.634;2023-04-27T02:49:45;8.183333;7.916667;6.016667
77516;PMS7003;68414;53.946;27.634;2023-04-27T02:50:45;8.800000;8.800000;5.766667
77516;PMS7003;68414;53.946;27.634;2023-04-27T02:51:45;9.233334;9.233334;5.900000
77516;PMS7003;68414;53.946;27.634;2023-04-27T02:52:45;8.733334;8.033334;5.066667
77516;PMS7003;68414;53.946;27.634;2023-04-27T02:53:45;8.783334;8.700000;5.900000
77516;PMS7003;68414;53.946;27.634;2023-04-27T02:54:45;7.150000;7.150000;5.250000
77516;PMS7003;68414;53.946;27.634;2023-04-27T02:55:45;8.350000;8.350000;6.600000
77516;PMS7003;68414;53.946;27.634;2023-04-27T02:56:45;9.550000;9.216666;5.733333
77516;PMS7003;68414;53.946;27.634;2023-04-27T02:57:45;8.266666;7.950000;5.983333
77516;PMS7003;68414;53.946;27.634;2023-04-27T02:58:45;9.000000;8.350000;5.650000
77516;PMS7003;68414;53.946;27.634;2023-04-27T02:59:45;8.333333;7.333333;5.166667
77516;PMS7003;68414;53.946;27.634;2023-04-27T03:00:45;10.100000;8.683333;6.183333
77516;PMS7003;68414;53.946;27.634;2023-04-27T03:01:45;7.366667;6.900000;5.250000
77516;PMS7003;68414;53.946;27.634;2023-04-27T03:02:45;7.966667;7.066667;5.616667
77516;PMS7003;68414;53.946;27.634;2023-04-27T03:03:45;6.900000;6.866667;4.716667
77516;PMS7003;68414;53.946;27.634;2023-04-27T03:04:45;9.816667;9.166667;6.750000
77516;PMS7003;68414;53.946;27.634;2023-04-27T03:05:45;12.200000;10.383333;6.066667
77516;PMS7003;68414;53.946;27.634;2023-04-27T03:06:47;7.150000;6.900000;4.533333
77516;PMS7003;68414;53.946;27.634;2023-04-27T03:07:45;8.300000;7.150000;5.216667
77516;PMS7003;68414;53.946;27.634;2023-04-27T03:08:45;8.566667;7.533333;4.950000
77516;PMS7003;68414;53.946;27.634;2023-04-27T03:09:45;7.783333;7.333333;5.566667
77516;PMS7003;68414;53.946;27.634;2023-04-27T03:10:45;7.550000;7.133333;5.583333
77516;PMS7003;68414;53.946;27.634;2023-04-27T03:11:45;7.016667;6.816667;5.100000
77516;PMS7003;68414;53.946;27.634;2023-04-27T03:12:45;7.966667;7.533333;5.666667
77516;PMS7003;68414;53.946;27.634;2023-04-27T03:13:45;7.600000;6.933333;4.966667
77516;PMS7003;68414;53.946;27.634;2023-04-27T03:14:45;6.866667;6.450000;4.633333
77516;PMS7003;68414;53.946;27.634;2023-04-27T03:15:45;7.300000;6.883333;4.483333
77516;PMS7003;68414;53.946;27.634;2023-04-27T03:16:45;6.950000;6.516667;4.583333
77516;PMS7003;68414;53.946;27.634;2023-04-27T03:17:45;5.966667;5.966667;4.466667
77516;PMS7003;68414;53.946;27.634;2023-04-27T03:18:45;6.216667;6.066667;4.466667
77516;PMS7003;68414;53.946;27.634;2023-04-27T03:19:46;6.266667;6.266667;4.883333
77516;PMS7003;68414;53.946;27.634;2023-04-27T03:20:45;7.266667;6.983333;4.750000
77516;PMS7003;68414;53.946;27.634;2023-04-27T03:21:45;6.666667;6.550000;4.716667
77516;PMS7003;68414;53.946;27.634;2023-04-27T03:22:45;5.483333;5.483333;4.500000
77516;PMS7003;68414;53.946;27.634;2023-04-27T03:23:45;7.116667;6.183333;4.616667
77516;PMS7003;68414;53.946;27.634;2023-04-27T03:24:45;6.516667;5.900000;4.450000
77516;PMS7003;68414;53.946;27.634;2023-04-27T03:25:45;6.266667;6.016667;4.833333
77516;PMS7003;68414;53.946;27.634;2023-04-27T03:26:45;5.533333;5.533333;4.033333
77516;PMS7003;68414;53.946;27.634;2023-04-27T03:27:45;6.650000;6.650000;4.950000
77516;PMS7003;68414;53.946;27.634;2023-04-27T03:28:46;7.400000;6.866667;4.733333
77516;PMS7003;68414;53.946;27.634;2023-04-27T03:29:45;7.666667;7.450000;5.050000
77516;PMS7003;68414;53.946;27.634;2023-04-27T03:30:45;7.216667;6.466667;4.666667
77516;PMS7003;68414;53.946;27.634;2023-04-27T03:31:45;6.633333;6.333333;4.950000
77516;PMS7003;68414;53.946;27.634;2023-04-27T03:32:45;6.016667;5.483333;3.950000
77516;PMS7003;68414;53.946;27.634;2023-04-27T03:33:45;7.483333;6.450000;5.233333
77516;PMS7003;68414;53.946;27.634;2023-04-27T03:34:45;6.600000;6.533333;4.650000
77516;PMS7003;68414;53.946;27.634;2023-04-27T03:36:45;6.850000;6.500000;4.800000
77516;PMS7003;68414;53.946;27.634;2023-04-27T03:37:45;6.900000;5.916667;4.783333
77516;PMS7003;68414;53.946;27.634;2023-04-27T03:38:45;7.016667;6.383333;4.916667
77516;PMS7003;68414;53.946;27.634;2023-04-27T03:39:45;6.850000;5.633333;4.800000
77516;PMS7003;68414;53.946;27.634;2023-04-27T03:40:45;4.950000;4.950000;4.166667
77516;PMS7003;68414;53.946;27.634;2023-04-27T03:41:45;7.300000;6.816667;4.533333
77516;PMS7003;68414;53.946;27.634;2023-04-27T03:42:45;6.366667;5.900000;4.483333
77516;PMS7003;68414;53.946;27.634;2023-04-27T03:43:45;10.083333;9.016666;7.283333
77516;PMS7003;68414;53.946;27.634;2023-04-27T03:44:45;6.583333;6.183333;4.783333
77516;PMS7003;68414;53.946;27.634;2023-04-27T03:45:46;6.850000;6.416667;5.250000
77516;PMS7003;68414;53.946;27.634;2023-04-27T03:46:45;7.333333;6.650000;5.350000
77516;PMS7003;68414;53.946;27.634;2023-04-27T03:47:45;7.883333;6.816667;4.383333
77516;PMS7003;68414;53.946;27.634;2023-04-27T03:48:45;6.483333;6.200000;4.583333
77516;PMS7003;68414;53.946;27.634;2023-04-27T03:49:45;6.350000;6.133333;5.116667
77516;PMS7003;68414;53.946;27.634;2023-04-27T03:50:45;7.000000;7.000000;5.466667
77516;PMS7003;68414;53.946;27.634;2023-04-27T03:51:45;7.750000;7.483333;4.950000
77516;PMS7003;68414;53.946;27.634;2023-04-27T03:52:45;6.833333;6.633333;5.000000
77516;PMS7003;68414;53.946;27.634;2023-04-27T03:53:45;7.566667;6.550000;5.483333
77516;PMS7003;68414;53.946;27.634;2023-04-27T03:54:45;7.933333;7.650000;5.850000
77516;PMS7003;68414;53.946;27.634;2023-04-27T03:55:45;6.483333;6.483333;5.216667
77516;PMS7003;68414;53.946;27.634;2023-04-27T03:56:45;6.333333;6.333333;4.400000
77516;PMS7003;68414;53.946;27.634;2023-04-27T03:57:47;7.416667;7.083333;4.933333
77516;PMS7003;68414;53.946;27.634;2023-04-27T03:58:45;7.216667;6.683333;4.800000
77516;PMS7003;68414;53.946;27.634;2023-04-27T03:59:45;7.933333;7.716667;5.483333
77516;PMS7003;68414;53.946;27.634;2023-04-27T04:00:45;9.566667;8.650000;5.950000
77516;PMS7003;68414;53.946;27.634;2023-04-27T04:01:45;7.050000;6.500000;4.983333
77516;PMS7003;68414;53.946;27.634;2023-04-27T04:02:45;5.750000;5.750000;4.683333
77516;PMS7003;68414;53.946;27.634;2023-04-27T04:03:45;6.750000;6.266667;4.950000
77516;PMS7003;68414;53.946;27.634;2023-04-27T04:04:45;7.766667;7.766667;5.583333
77516;PMS7003;68414;53.946;27.634;2023-04-27T04:05:45;7.516667;6.733333;4.983333
77516;PMS7003;68414;53.946;27.634;2023-04-27T04:06:45;6.550000;6.433333;4.900000
77516;PMS7003;68414;53.946;27.634;2023-04-27T04:07:45;6.083333;6.083333;4.500000
77516;PMS7003;68414;53.946;27.634;2023-04-27T04:08:45;7.300000;6.916667;4.883333
77516;PMS7003;68414;53.946;27.634;2023-04-27T04:09:45;8.000000;7.483333;5.366667
77516;PMS7003;68414;53.946;27.634;2023-04-27T04:10:45;8.233334;7.833333;5.933333
77516;PMS7003;68414;53.946;27.634;2023-04-27T04:11:45;8.500000;6.483333;4.900000
77516;PMS7003;68414;53.946;27.634;2023-04-27T04:12:45;6.216667;6.050000;4.166667
77516;PMS7003;68414;53.946;27.634;2023-04-27T04:13:45;7.633333;7.016667;5.250000
77516;PMS7003;68414;53.946;27.634;2023-04-27T04:14:45;6.933333;6.616667;5.133333
77516;PMS7003;68414;53.946;27.634;2023-04-27T04:15:45;7.283333;6.800000;5.283333
77516;PMS7003;68414;53.946;27.634;2023-04-27T04:16:45;7.050000;6.833333;4.883333
77516;PMS7003;68414;53.946;27.634;2023-04-27T04:17:45;6.066667;6.033333;4.633333
77516;PMS7003;68414;53.946;27.634;2023-04-27T04:18:45;7.833333;6.583333;5.066667
77516;PMS7003;68414;53.946;27.634;2023-04-27T04:19:45;8.650000;8.150000;5.483333
77516;PMS7003;68414;53.946;27.634;2023-04-27T04:20:45;7.616667;7.216667;4.666667
77516;PMS7003;68414;53.946;27.634;2023-04-27T04:21:45;7.750000;7.750000;5.583333
77516;PMS7003;68414;53.946;27.634;2023-04-27T04:22:45;6.850000;6.766667;5.166667
77516;PMS7003;68414;53.946;27.634;2023-04-27T04:23:47;7.266667;6.233333;4.933333
77516;PMS7003;68414;53.946;27.634;2023-04-27T04:24:45;6.900000;6.566667;4.900000
77516;PMS7003;68414;53.946;27.634;2023-04-27T04:25:45;5.833333;5.833333;4.166667
77516;PMS7003;68414;53.946;27.634;2023-04-27T04:26:45;7.450000;7.233333;5.350000
77516;PMS7003;68414;53.946;27.634;2023-04-27T04:27:45;8.616667;8.200000;5.950000
77516;PMS7003;68414;53.946;27.634;2023-04-27T04:28:45;7.533333;7.533333;5.350000
77516;PMS7003;68414;53.946;27.634;2023-04-27T04:29:45;7.000000;7.000000;5.166667
77516;PMS7003;68414;53.946;27.634;2023-04-27T04:30:45;8.750000;8.133333;6.050000
77516;PMS7003;68414;53.946;27.634;2023-04-27T04:31:45;7.783333;7.533333;5.933333
77516;PMS7003;68414;53.946;27.634;2023-04-27T04:32:45;6.416667;6.283333;4.600000
77516;PMS7003;68414;53.946;27.634;2023-04-27T04:33:45;7.666667;6.983333;4.850000
77516;PMS7003;68414;53.946;27.634;2023-04-27T04:35:45;10.566667;9.333333;6.566667
77516;PMS7003;68414;53.946;27.634;2023-04-27T04:36:45;6.916667;6.916667;4.733333
77516;PMS7003;68414;53.946;27.634;2023-04-27T04:37:45;7.983333;7.600000;4.833333
77516;PMS7003;68414;53.946;27.634;2023-04-27T04:38:45;6.150000;6.150000;4.750000
77516;PMS7003;68414;53.946;27.634;2023-04-27T04:39:45;7.083333;6.616667;4.950000
77516;PMS7003;68414;53.946;27.634;2023-04-27T04:40:45;7.133333;7.000000;5.266667
77516;PMS7003;68414;53.946;27.634;2023-04-27T04:41:45;7.183333;6.983333;5.683333
77516;PMS7003;68414;53.946;27.634;2023-04-27T04:42:45;8.000000;7.816667;5.833333
77516;PMS7003;68414;53.946;27.634;2023-04-27T04:43:45;8.783334;8.450000;6.033333
77516;PMS7003;68414;53.946;27.634;2023-04-27T04:44:45;9.083333;7.750000;6.066667
77516;PMS7003;68414;53.946;27.634;2023-04-27T04:45:45;7.016667;6.716667;5.366667
77516;PMS7003;68414;53.946;27.634;2023-04-27T04:46:45;8.000000;7.616667;5.783333
77516;PMS7003;68414;53.946;27.634;2023-04-27T04:47:45;7.650000;7.116667;5.300000
77516;PMS7003;68414;53.946;27.634;2023-04-27T04:48:45;7.183333;6.966667;5.350000
77516;PMS7003;68414;53.946;27.634;2023-04-27T04:49:45;7.133333;6.633333;4.716667
77516;PMS7003;68414;53.946;27.634;2023-04-27T04:50:45;7.616667;7.616667;5.616667
77516;PMS7003;68414;53.946;27.634;2023-04-27T04:51:45;7.233333;7.233333;5.533333
77516;PMS7003;68414;53.946;27.634;2023-04-27T04:52:45;8.450000;8.300000;6.050000
77516;PMS7003;68414;53.946;27.634;2023-04-27T04:53:45;7.483333;7.416667;6.033333
77516;PMS7003;68414;53.946;27.634;2023-04-27T04:54:45;7.316667;7.316667;5.683333
77516;PMS7003;68414;53.946;27.634;2023-04-27T04:55:45;8.483334;8.133333;5.200000
77516;PMS7003;68414;53.946;27.634;2023-04-27T04:56:45;7.383333;7.366667;5.283333
77516;PMS7003;68414;53.946;27.634;2023-04-27T04:57:45;9.450000;8.266666;6.033333
77516;PMS7003;68414;53.946;27.634;2023-04-27T04:58:45;9.000000;8.150000;6.183333